Hull, Canada
Current Conditions -  °F | °C
As of 12:00 PM on Saturday 20 Dec 2014 (Local Time) from CYOW Reporting Station
Few Clouds Few Clouds  
Wind Chill: 18°   Ceiling: Unl
Heat Index: 18°   Visibility: 15mi
Dew Point: 12°   Wind: 2mph
Humidity: 79%   Direction: NA
Pressure: 30.32"   Gusts: NA
Location:  45.43°N, 75.71°W
Report Text: CYOW 201700Z VRB02KT 15SM FEW240 M08/M11 A3032 RMK CI1 SLP277
Loading
Personal Weather Stations






























Interactive Weather Map New forecast layout! Learn more

10-Day Weather Forecast

Advertisements
Track Severe Weather on mobile